Time,TemperatureF,DewpointF,PressureIn,WindDirection,WindDirectionDegrees,WindSpeedMPH,WindSpeedGustMPH,Humidity,HourlyPrecipIn,Conditions,Clouds,dailyrainin,SoftwareType,DateUTC
2013-07-04 00:01:00,71.8,66.4,30.14,WSW,238,0.0,0.0,83,0.00,,,0.00,Wunderground v.1.15,2013-07-04 04:01:00,
2013-07-04 00:02:00,71.7,66.3,30.14,WSW,238,0.0,0.0,83,0.00,,,0.00,Wunderground v.1.15,2013-07-04 04:02:00,
2013-07-04 00:03:00,71.7,66.6,30.14,WSW,238,0.0,0.0,84,0.00,,,0.00,Wunderground v.1.15,2013-07-04 04:03:00,
2013-07-04 00:04:00,71.7,66.6,30.14,WSW,238,0.0,0.0,84,0.00,,,0.00,Wunderground v.1.15,2013-07-04 04:04:00,
2013-07-04 00:06:00,71.7,66.6,30.14,WSW,238,0.0,0.0,84,0.00,,,0.00,Wunderground v.1.15,2013-07-04 04:06:00,
2013-07-04 00:12:00,71.8,66.4,30.13,WSW,238,0.0,0.0,83,0.00,,,0.00,Wunderground v.1.15,2013-07-04 04:12:00,
2013-07-04 00:18:00,72.0,66.6,30.14,WSW,238,0.0,0.0,83,0.00,,,0.00,Wunderground v.1.15,2013-07-04 04:18:00,
2013-07-04 00:23:00,72.1,67.0,30.14,WSW,238,0.0,0.0,84,0.00,,,0.00,Wunderground v.1.15,2013-07-04 04:23:00,
2013-07-04 00:29:00,72.2,67.1,30.14,WSW,238,0.0,0.0,84,0.00,,,0.00,Wunderground v.1.15,2013-07-04 04:29:00,
2013-07-04 00:34:00,72.3,67.2,30.14,WSW,238,0.0,0.0,84,0.00,,,0.00,Wunderground v.1.15,2013-07-04 04:34:00,
2013-07-04 00:39:00,72.3,67.5,30.14,WSW,238,0.0,0.0,85,0.00,,,0.00,Wunderground v.1.15,2013-07-04 04:39:00,
2013-07-04 00:45:00,72.3,67.5,30.14,WSW,238,0.0,0.0,85,0.00,,,0.00,Wunderground v.1.15,2013-07-04 04:45:00,
2013-07-04 00:50:00,72.3,67.9,30.14,WSW,238,0.0,0.0,86,0.00,,,0.00,Wunderground v.1.15,2013-07-04 04:50:00,
2013-07-04 00:55:00,72.3,67.9,30.14,WSW,238,0.0,0.0,86,0.00,,,0.00,Wunderground v.1.15,2013-07-04 04:55:00,
2013-07-04 01:01:00,72.3,67.9,30.14,WSW,238,0.0,0.0,86,0.00,,,0.00,Wunderground v.1.15,2013-07-04 05:01:00,
2013-07-04 01:06:00,72.3,67.9,30.14,WSW,238,0.0,0.0,86,0.00,,,0.00,Wunderground v.1.15,2013-07-04 05:06:00,
2013-07-04 01:11:00,72.3,67.9,30.14,WSW,238,0.0,0.0,86,0.00,,,0.00,Wunderground v.1.15,2013-07-04 05:11:00,
2013-07-04 01:17:00,72.3,67.9,30.14,WSW,238,0.0,0.0,86,0.00,,,0.00,Wunderground v.1.15,2013-07-04 05:17:00,
2013-07-04 01:22:00,72.2,67.8,30.14,WSW,238,0.0,0.0,86,0.00,,,0.00,Wunderground v.1.15,2013-07-04 05:22:00,
2013-07-04 01:27:00,72.2,67.8,30.14,WSW,238,0.0,0.0,86,0.00,,,0.00,Wunderground v.1.15,2013-07-04 05:27:00,
2013-07-04 01:33:00,72.1,67.7,30.14,WSW,238,0.0,0.0,86,0.00,,,0.00,Wunderground v.1.15,2013-07-04 05:33:00,
2013-07-04 01:38:00,72.0,67.6,30.14,WSW,238,0.0,0.0,86,0.00,,,0.00,Wunderground v.1.15,2013-07-04 05:38:00,
2013-07-04 01:43:00,72.0,67.6,30.14,WSW,238,0.0,0.0,86,0.00,,,0.00,Wunderground v.1.15,2013-07-04 05:43:00,
2013-07-04 01:49:00,71.9,67.5,30.14,WSW,238,0.0,0.0,86,0.00,,,0.00,Wunderground v.1.15,2013-07-04 05:49:00,
2013-07-04 01:54:00,71.9,67.5,30.14,WSW,238,0.0,0.0,86,0.00,,,0.00,Wunderground v.1.15,2013-07-04 05:54:00,
2013-07-04 01:59:00,71.8,67.4,30.14,WSW,238,0.0,0.0,86,0.00,,,0.00,Wunderground v.1.15,2013-07-04 05:59:00,
2013-07-04 02:05:00,71.8,67.4,30.14,WSW,238,0.0,0.0,86,0.00,,,0.00,Wunderground v.1.15,2013-07-04 06:05:00,
2013-07-04 02:11:00,71.9,67.5,30.14,WSW,238,0.0,0.0,86,0.00,,,0.00,Wunderground v.1.15,2013-07-04 06:11:00,
2013-07-04 02:16:00,71.9,67.5,30.14,WSW,238,0.0,0.0,86,0.00,,,0.00,Wunderground v.1.15,2013-07-04 06:16:00,
2013-07-04 02:22:00,71.9,67.5,30.14,WSW,238,0.0,0.0,86,0.00,,,0.00,Wunderground v.1.15,2013-07-04 06:22:00,
2013-07-04 02:27:00,71.9,67.5,30.14,WSW,238,0.0,0.0,86,0.00,,,0.00,Wunderground v.1.15,2013-07-04 06:27:00,
2013-07-04 02:33:00,71.9,67.5,30.13,WSW,238,0.0,0.0,86,0.00,,,0.00,Wunderground v.1.15,2013-07-04 06:33:00,
2013-07-04 02:38:00,72.0,67.9,30.13,WSW,238,0.0,0.0,87,0.00,,,0.00,Wunderground v.1.15,2013-07-04 06:38:00,
2013-07-04 02:43:00,71.9,67.8,30.13,WSW,238,0.0,0.0,87,0.00,,,0.00,Wunderground v.1.15,2013-07-04 06:43:00,
2013-07-04 02:49:00,71.8,67.7,30.13,WSW,238,0.0,0.0,87,0.00,,,0.00,Wunderground v.1.15,2013-07-04 06:49:00,
2013-07-04 02:54:00,71.7,67.6,30.13,WSW,238,0.0,0.0,87,0.00,,,0.00,Wunderground v.1.15,2013-07-04 06:54:00,
2013-07-04 02:59:00,71.6,67.5,30.13,WSW,238,0.0,0.0,87,0.00,,,0.00,Wunderground v.1.15,2013-07-04 06:59:00,
2013-07-04 03:05:00,71.5,67.4,30.13,WSW,238,0.0,0.0,87,0.00,,,0.00,Wunderground v.1.15,2013-07-04 07:05:00,
2013-07-04 03:11:00,71.4,67.0,30.13,WSW,238,0.0,0.0,86,0.00,,,0.00,Wunderground v.1.15,2013-07-04 07:11:00,
2013-07-04 03:17:00,71.4,67.3,30.13,WSW,238,0.0,0.0,87,0.00,,,0.00,Wunderground v.1.15,2013-07-04 07:17:00,
2013-07-04 03:22:00,71.3,66.9,30.13,WSW,238,0.0,0.0,86,0.00,,,0.00,Wunderground v.1.15,2013-07-04 07:22:00,
2013-07-04 03:27:00,71.3,66.9,30.13,WSW,238,0.0,0.0,86,0.00,,,0.00,Wunderground v.1.15,2013-07-04 07:27:00,
2013-07-04 03:33:00,71.2,66.8,30.13,WSW,238,0.0,0.0,86,0.00,,,0.00,Wunderground v.1.15,2013-07-04 07:33:00,
2013-07-04 03:38:00,71.2,66.8,30.13,WSW,238,0.0,0.0,86,0.00,,,0.00,Wunderground v.1.15,2013-07-04 07:38:00,
2013-07-04 03:44:00,71.2,66.8,30.13,WSW,238,0.0,0.0,86,0.00,,,0.00,Wunderground v.1.15,2013-07-04 07:44:00,
2013-07-04 03:49:00,71.2,66.8,30.13,WSW,238,0.0,0.0,86,0.00,,,0.00,Wunderground v.1.15,2013-07-04 07:49:00,
2013-07-04 03:54:00,71.2,66.8,30.14,WSW,238,0.0,0.0,86,0.00,,,0.00,Wunderground v.1.15,2013-07-04 07:54:00,
2013-07-04 04:00:00,71.3,66.9,30.13,WSW,238,0.0,0.0,86,0.00,,,0.00,Wunderground v.1.15,2013-07-04 08:00:00,
2013-07-04 04:05:00,71.3,66.6,30.13,SW,229,0.0,2.0,85,0.00,,,0.00,Wunderground v.1.15,2013-07-04 08:05:00,
2013-07-04 04:11:00,71.4,66.7,30.13,SW,229,0.0,0.0,85,0.00,,,0.00,Wunderground v.1.15,2013-07-04 08:11:00,
2013-07-04 04:16:00,71.6,66.8,30.13,SW,225,0.0,1.0,85,0.00,,,0.00,Wunderground v.1.15,2013-07-04 08:16:00,
2013-07-04 04:21:00,71.6,67.2,30.13,SW,225,0.0,0.0,86,0.00,,,0.00,Wunderground v.1.15,2013-07-04 08:21:00,
2013-07-04 04:27:00,71.7,67.3,30.13,SW,225,0.0,0.0,86,0.00,,,0.00,Wunderground v.1.15,2013-07-04 08:27:00,
2013-07-04 04:32:00,71.7,67.3,30.13,SW,225,0.0,0.0,86,0.00,,,0.00,Wunderground v.1.15,2013-07-04 08:32:00,
2013-07-04 04:37:00,71.8,67.4,30.14,SW,225,0.0,0.0,86,0.00,,,0.00,Wunderground v.1.15,2013-07-04 08:37:00,
2013-07-04 04:42:00,71.8,67.4,30.13,SW,225,0.0,0.0,86,0.00,,,0.00,Wunderground v.1.15,2013-07-04 08:42:00,
2013-07-04 04:48:00,71.6,67.5,30.14,SW,225,0.0,0.0,87,0.00,,,0.00,Wunderground v.1.15,2013-07-04 08:48:00,
2013-07-04 04:53:00,71.6,67.5,30.13,SW,225,0.0,0.0,87,0.00,,,0.00,Wunderground v.1.15,2013-07-04 08:53:00,
2013-07-04 04:59:00,71.4,67.3,30.14,SW,225,0.0,0.0,87,0.00,,,0.00,Wunderground v.1.15,2013-07-04 08:59:00,
2013-07-04 05:04:00,71.3,67.2,30.14,SW,225,0.0,0.0,87,0.00,,,0.00,Wunderground v.1.15,2013-07-04 09:04:00,
2013-07-04 05:09:00,71.2,67.1,30.13,SW,225,0.0,2.0,87,0.00,,,0.00,Wunderground v.1.15,2013-07-04 09:09:00,
2013-07-04 05:15:00,71.1,67.0,30.14,SW,225,0.0,0.0,87,0.00,,,0.00,Wunderground v.1.15,2013-07-04 09:15:00,
2013-07-04 05:20:00,71.0,66.9,30.13,SW,223,0.0,0.0,87,0.00,,,0.00,Wunderground v.1.15,2013-07-04 09:20:00,
2013-07-04 05:25:00,71.0,66.9,30.13,SW,223,0.0,0.0,87,0.00,,,0.00,Wunderground v.1.15,2013-07-04 09:25:00,
2013-07-04 05:31:00,70.8,66.7,30.14,SW,223,0.0,0.0,87,0.00,,,0.00,Wunderground v.1.15,2013-07-04 09:31:00,
2013-07-04 05:37:00,70.8,66.7,30.14,SW,223,0.0,0.0,87,0.00,,,0.00,Wunderground v.1.15,2013-07-04 09:37:00,
2013-07-04 05:42:00,70.8,66.4,30.14,SW,223,0.0,0.0,86,0.00,,,0.00,Wunderground v.1.15,2013-07-04 09:42:00,
2013-07-04 05:48:00,70.9,66.5,30.14,SW,223,0.0,0.0,86,0.00,,,0.00,Wunderground v.1.15,2013-07-04 09:48:00,
2013-07-04 05:53:00,70.9,66.5,30.14,SW,223,0.0,0.0,86,0.00,,,0.00,Wunderground v.1.15,2013-07-04 09:53:00,
2013-07-04 05:59:00,71.0,66.6,30.14,SW,223,0.0,0.0,86,0.00,,,0.00,Wunderground v.1.15,2013-07-04 09:59:00,
2013-07-04 06:04:00,71.1,66.7,30.14,SW,223,0.0,0.0,86,0.00,,,0.00,Wunderground v.1.15,2013-07-04 10:04:00,
2013-07-04 06:09:00,71.2,66.8,30.15,SW,223,0.0,0.0,86,0.00,,,0.00,Wunderground v.1.15,2013-07-04 10:09:00,
2013-07-04 06:15:00,71.2,66.8,30.14,SW,223,0.0,2.0,86,0.00,,,0.00,Wunderground v.1.15,2013-07-04 10:15:00,
2013-07-04 06:20:00,71.4,67.0,30.14,SW,223,0.0,0.0,86,0.00,,,0.00,Wunderground v.1.15,2013-07-04 10:20:00,
2013-07-04 06:25:00,71.5,67.1,30.15,SW,223,0.0,0.0,86,0.00,,,0.00,Wunderground v.1.15,2013-07-04 10:25:00,
2013-07-04 06:31:00,71.6,67.2,30.14,SW,221,0.0,2.0,86,0.00,,,0.00,Wunderground v.1.15,2013-07-04 10:31:00,
2013-07-04 06:37:00,71.7,67.3,30.15,SW,218,0.0,2.0,86,0.00,,,0.00,Wunderground v.1.15,2013-07-04 10:37:00,
2013-07-04 06:43:00,71.8,67.4,30.16,SW,217,0.0,2.0,86,0.00,,,0.00,Wunderground v.1.15,2013-07-04 10:43:00,
2013-07-04 06:48:00,71.9,67.5,30.15,SW,217,0.0,2.0,86,0.00,,,0.00,Wunderground v.1.15,2013-07-04 10:48:00,
2013-07-04 06:54:00,72.0,67.6,30.15,SW,217,0.0,1.0,86,0.00,,,0.00,Wunderground v.1.15,2013-07-04 10:54:00,
2013-07-04 06:59:00,72.1,67.7,30.15,SW,217,0.0,1.0,86,0.00,,,0.00,Wunderground v.1.15,2013-07-04 10:59:00,
2013-07-04 07:04:00,72.3,67.9,30.15,SW,217,0.0,0.0,86,0.00,,,0.00,Wunderground v.1.15,2013-07-04 11:04:00,
2013-07-04 07:10:00,72.5,68.4,30.16,SW,217,0.0,0.0,87,0.00,,,0.00,Wunderground v.1.15,2013-07-04 11:10:00,
2013-07-04 07:15:00,72.6,68.5,30.16,SW,217,0.0,1.0,87,0.00,,,0.00,Wunderground v.1.15,2013-07-04 11:15:00,
2013-07-04 07:21:00,72.8,68.7,30.16,SW,217,0.0,0.0,87,0.00,,,0.00,Wunderground v.1.15,2013-07-04 11:21:00,
2013-07-04 07:27:00,73.0,68.9,30.16,SW,217,0.0,0.0,87,0.00,,,0.00,Wunderground v.1.15,2013-07-04 11:27:00,
2013-07-04 07:32:00,73.3,69.2,30.16,SW,215,0.0,1.0,87,0.00,,,0.00,Wunderground v.1.15,2013-07-04 11:32:00,
2013-07-04 07:38:00,73.6,69.8,30.17,SW,215,0.0,2.0,88,0.00,,,0.00,Wunderground v.1.15,2013-07-04 11:38:00,
2013-07-04 07:43:00,73.8,70.0,30.17,SW,215,1.0,1.0,88,0.00,,,0.00,Wunderground v.1.15,2013-07-04 11:43:00,
2013-07-04 07:48:00,74.2,70.4,30.17,SSW,206,1.0,3.0,88,0.00,,,0.00,Wunderground v.1.15,2013-07-04 11:48:00,
2013-07-04 07:54:00,74.5,70.7,30.17,South,178,1.0,2.0,88,0.00,,,0.00,Wunderground v.1.15,2013-07-04 11:54:00,
2013-07-04 07:59:00,74.7,70.9,30.17,South,169,1.0,3.0,88,0.00,,,0.00,Wunderground v.1.15,2013-07-04 11:59:00,
2013-07-04 08:04:00,74.9,71.1,30.17,South,169,0.0,1.0,88,0.00,,,0.00,Wunderground v.1.15,2013-07-04 12:04:00,
2013-07-04 08:10:00,75.3,71.5,30.16,SSE,157,1.0,3.0,88,0.00,,,0.00,Wunderground v.1.15,2013-07-04 12:10:00,
2013-07-04 08:15:00,75.6,71.8,30.17,SSE,160,2.0,4.0,88,0.00,,,0.00,Wunderground v.1.15,2013-07-04 12:15:00,
2013-07-04 08:20:00,75.8,72.0,30.16,SSE,168,2.0,4.0,88,0.00,,,0.00,Wunderground v.1.15,2013-07-04 12:20:00,
2013-07-04 08:26:00,76.2,72.0,30.16,SSE,165,2.0,5.0,87,0.00,,,0.00,Wunderground v.1.15,2013-07-04 12:26:00,
2013-07-04 08:32:00,76.7,72.5,30.17,SSE,159,4.0,6.0,87,0.00,,,0.00,Wunderground v.1.15,2013-07-04 12:32:00,
2013-07-04 08:38:00,77.1,72.6,30.16,SSE,163,4.0,6.0,86,0.00,,,0.00,Wunderground v.1.15,2013-07-04 12:38:00,
2013-07-04 08:43:00,77.5,73.0,30.16,South,175,4.0,4.0,86,0.00,,,0.00,Wunderground v.1.15,2013-07-04 12:43:00,
2013-07-04 08:49:00,77.8,72.9,30.16,South,169,3.0,6.0,85,0.00,,,0.00,Wunderground v.1.15,2013-07-04 12:49:00,
2013-07-04 08:54:00,77.8,72.9,30.16,South,174,3.0,6.0,85,0.00,,,0.00,Wunderground v.1.15,2013-07-04 12:54:00,
2013-07-04 08:59:00,77.8,72.6,30.16,SSW,192,3.0,6.0,84,0.00,,,0.00,Wunderground v.1.15,2013-07-04 12:59:00,
2013-07-04 09:05:00,78.0,73.1,30.16,SSW,194,3.0,7.0,85,0.00,,,0.00,Wunderground v.1.15,2013-07-04 13:05:00,
2013-07-04 09:11:00,78.3,73.1,30.16,South,171,2.0,3.0,84,0.00,,,0.00,Wunderground v.1.15,2013-07-04 13:11:00,
2013-07-04 09:16:00,78.6,72.6,30.16,SSE,154,2.0,6.0,82,0.00,,,0.00,Wunderground v.1.15,2013-07-04 13:16:00,
2013-07-04 09:22:00,78.9,73.3,30.16,SSE,165,2.0,4.0,83,0.00,,,0.00,Wunderground v.1.15,2013-07-04 13:22:00,
2013-07-04 09:27:00,79.0,73.4,30.16,South,172,3.0,5.0,83,0.00,,,0.00,Wunderground v.1.15,2013-07-04 13:27:00,
2013-07-04 09:33:00,79.1,73.5,30.16,SW,217,3.0,3.0,83,0.00,,,0.00,Wunderground v.1.15,2013-07-04 13:33:00,
2013-07-04 09:38:00,79.3,73.3,30.15,SSW,194,2.0,4.0,82,0.00,,,0.00,Wunderground v.1.15,2013-07-04 13:38:00,
2013-07-04 09:43:00,79.5,73.2,30.15,SSW,196,3.0,7.0,81,0.00,,,0.00,Wunderground v.1.15,2013-07-04 13:43:00,
2013-07-04 09:49:00,79.8,73.4,30.15,South,178,4.0,9.0,81,0.00,,,0.00,Wunderground v.1.15,2013-07-04 13:49:00,
2013-07-04 09:54:00,80.4,73.7,30.15,SSW,201,5.0,7.0,80,0.00,,,0.00,Wunderground v.1.15,2013-07-04 13:54:00,
2013-07-04 10:00:00,81.1,74.0,30.15,WNW,287,4.0,4.0,79,0.00,,,0.00,Wunderground v.1.15,2013-07-04 14:00:00,
2013-07-04 10:05:00,81.4,74.3,30.15,WSW,242,4.0,4.0,79,0.00,,,0.00,Wunderground v.1.15,2013-07-04 14:05:00,
2013-07-04 10:11:00,81.3,73.8,30.16,South,185,4.0,5.0,78,0.00,,,0.00,Wunderground v.1.15,2013-07-04 14:11:00,
2013-07-04 10:17:00,81.2,74.1,30.15,SSW,194,4.0,9.0,79,0.00,,,0.00,Wunderground v.1.15,2013-07-04 14:17:00,
2013-07-04 10:22:00,81.2,74.1,30.15,South,171,4.0,6.0,79,0.00,,,0.00,Wunderground v.1.15,2013-07-04 14:22:00,
2013-07-04 10:27:00,81.5,74.0,30.15,SW,219,4.0,9.0,78,0.00,,,0.00,Wunderground v.1.15,2013-07-04 14:27:00,
2013-07-04 10:33:00,81.5,74.4,30.15,South,170,3.0,11.0,79,0.00,,,0.00,Wunderground v.1.15,2013-07-04 14:33:00,
2013-07-04 10:38:00,81.6,74.8,30.15,South,186,5.0,13.0,80,0.00,,,0.00,Wunderground v.1.15,2013-07-04 14:38:00,
2013-07-04 10:44:00,81.8,73.9,30.15,SSW,195,6.0,9.0,77,0.00,,,0.00,Wunderground v.1.15,2013-07-04 14:44:00,
2013-07-04 10:49:00,81.8,74.3,30.15,West,271,5.0,9.0,78,0.00,,,0.00,Wunderground v.1.15,2013-07-04 14:49:00,
2013-07-04 10:54:00,81.8,74.3,30.14,West,260,3.0,5.0,78,0.00,,,0.00,Wunderground v.1.15,2013-07-04 14:54:00,
2013-07-04 11:00:00,81.8,73.9,30.14,SW,234,2.0,2.0,77,0.00,,,0.00,Wunderground v.1.15,2013-07-04 15:00:00,
2013-07-04 11:05:00,81.7,73.4,30.14,WSW,248,3.0,8.0,76,0.00,,,0.00,Wunderground v.1.15,2013-07-04 15:05:00,
2013-07-04 11:11:00,81.8,73.5,30.14,South,186,4.0,5.0,76,0.00,,,0.00,Wunderground v.1.15,2013-07-04 15:11:00,
2013-07-04 11:17:00,81.8,73.5,30.14,South,188,4.0,8.0,76,0.00,,,0.00,Wunderground v.1.15,2013-07-04 15:17:00,
2013-07-04 11:22:00,81.8,73.5,30.14,South,186,5.0,5.0,76,0.00,,,0.00,Wunderground v.1.15,2013-07-04 15:22:00,
2013-07-04 11:28:00,81.5,73.2,30.14,South,188,5.0,7.0,76,0.00,,,0.00,Wunderground v.1.15,2013-07-04 15:28:00,
2013-07-04 11:33:00,81.4,73.1,30.13,South,181,5.0,10.0,76,0.00,,,0.00,Wunderground v.1.15,2013-07-04 15:33:00,
2013-07-04 11:38:00,81.8,74.3,30.13,WSW,240,3.0,10.0,78,0.00,,,0.00,Wunderground v.1.15,2013-07-04 15:38:00,
2013-07-04 11:44:00,81.8,73.1,30.13,South,188,3.0,7.0,75,0.00,,,0.00,Wunderground v.1.15,2013-07-04 15:44:00,
2013-07-04 11:49:00,81.8,73.5,30.13,SSW,211,4.0,7.0,76,0.00,,,0.00,Wunderground v.1.15,2013-07-04 15:49:00,
2013-07-04 11:54:00,81.9,73.6,30.13,South,188,4.0,9.0,76,0.00,,,0.00,Wunderground v.1.15,2013-07-04 15:54:00,
2013-07-04 12:00:00,82.0,73.3,30.13,WSW,246,4.0,4.0,75,0.00,,,0.00,Wunderground v.1.15,2013-07-04 16:00:00,
2013-07-04 12:05:00,82.5,74.2,30.13,SSW,201,4.0,9.0,76,0.00,,,0.00,Wunderground v.1.15,2013-07-04 16:05:00,
2013-07-04 12:11:00,82.8,74.1,30.12,WNW,283,4.0,4.0,75,0.00,,,0.00,Wunderground v.1.15,2013-07-04 16:11:00,
2013-07-04 12:16:00,82.6,73.9,30.13,WSW,237,3.0,5.0,75,0.00,,,0.00,Wunderground v.1.15,2013-07-04 16:16:00,
2013-07-04 12:21:00,82.4,74.1,30.13,WSW,245,2.0,3.0,76,0.00,,,0.00,Wunderground v.1.15,2013-07-04 16:21:00,
2013-07-04 12:27:00,82.8,73.7,30.12,WSW,252,3.0,5.0,74,0.00,,,0.00,Wunderground v.1.15,2013-07-04 16:27:00,
2013-07-04 12:32:00,82.8,73.7,30.12,WSW,244,3.0,4.0,74,0.00,,,0.00,Wunderground v.1.15,2013-07-04 16:32:00,
2013-07-04 12:37:00,82.4,74.1,30.12,WSW,252,2.0,4.0,76,0.00,,,0.00,Wunderground v.1.15,2013-07-04 16:37:00,
2013-07-04 12:42:00,82.7,74.8,30.12,West,259,2.0,2.0,77,0.00,,,0.00,Wunderground v.1.15,2013-07-04 16:42:00,
2013-07-04 12:48:00,83.6,74.8,30.12,West,259,2.0,6.0,75,0.00,,,0.00,Wunderground v.1.15,2013-07-04 16:48:00,
2013-07-04 12:54:00,84.0,74.0,30.11,South,177,3.0,6.0,72,0.00,,,0.00,Wunderground v.1.15,2013-07-04 16:54:00,
2013-07-04 13:00:00,84.5,74.9,30.12,West,281,4.0,4.0,73,0.00,,,0.00,Wunderground v.1.15,2013-07-04 17:00:00,
2013-07-04 13:05:00,84.4,74.0,30.12,South,190,4.0,7.0,71,0.00,,,0.00,Wunderground v.1.15,2013-07-04 17:05:00,
2013-07-04 13:11:00,84.1,73.7,30.11,West,275,4.0,5.0,71,0.00,,,0.00,Wunderground v.1.15,2013-07-04 17:11:00,
2013-07-04 13:16:00,83.9,74.3,30.11,West,279,4.0,5.0,73,0.00,,,0.00,Wunderground v.1.15,2013-07-04 17:16:00,
2013-07-04 13:21:00,83.5,73.9,30.11,SW,236,3.0,3.0,73,0.00,,,0.00,Wunderground v.1.15,2013-07-04 17:21:00,
2013-07-04 13:27:00,83.3,74.1,30.11,West,273,2.0,5.0,74,0.00,,,0.00,Wunderground v.1.15,2013-07-04 17:27:00,
2013-07-04 13:32:00,83.0,74.3,30.11,SW,234,2.0,3.0,75,0.00,,,0.00,Wunderground v.1.15,2013-07-04 17:32:00,
2013-07-04 13:38:00,82.5,74.9,30.11,South,183,3.0,6.0,78,0.00,,,0.00,Wunderground v.1.15,2013-07-04 17:38:00,
2013-07-04 13:43:00,81.6,74.8,30.11,SSE,165,3.0,4.0,80,0.00,,,0.00,Wunderground v.1.15,2013-07-04 17:43:00,
2013-07-04 13:48:00,80.7,74.0,30.11,South,174,3.0,6.0,80,0.00,,,0.00,Wunderground v.1.15,2013-07-04 17:48:00,
2013-07-04 13:54:00,80.7,73.6,30.11,SE,131,3.0,4.0,79,0.00,,,0.00,Wunderground v.1.15,2013-07-04 17:54:00,
2013-07-04 13:59:00,81.4,74.3,30.11,NE,35,1.0,4.0,79,0.00,,,0.00,Wunderground v.1.15,2013-07-04 17:59:00,
2013-07-04 14:05:00,81.8,73.1,30.11,NE,35,1.0,3.0,75,0.00,,,0.00,Wunderground v.1.15,2013-07-04 18:05:00,
2013-07-04 14:11:00,82.1,75.7,30.11,NE,35,0.0,0.0,81,0.00,,,0.00,Wunderground v.1.15,2013-07-04 18:11:00,
2013-07-04 14:17:00,82.7,76.3,30.11,NE,38,0.0,3.0,81,0.00,,,0.00,Wunderground v.1.15,2013-07-04 18:17:00,
2013-07-04 14:22:00,83.3,76.9,30.10,NE,44,0.0,1.0,81,0.00,,,0.00,Wunderground v.1.15,2013-07-04 18:22:00,
2013-07-04 14:28:00,84.1,76.1,30.10,WSW,248,1.0,4.0,77,0.00,,,0.00,Wunderground v.1.15,2013-07-04 18:28:00,
2013-07-04 14:33:00,85.1,75.5,30.10,WSW,246,2.0,4.0,73,0.00,,,0.00,Wunderground v.1.15,2013-07-04 18:33:00,
2013-07-04 14:39:00,84.8,76.8,30.10,NW,321,3.0,6.0,77,0.00,,,0.00,Wunderground v.1.15,2013-07-04 18:39:00,
2013-07-04 14:44:00,84.5,76.1,30.10,WNW,292,5.0,9.0,76,0.00,,,0.00,Wunderground v.1.15,2013-07-04 18:44:00,
2013-07-04 14:50:00,83.9,77.1,30.10,NNW,330,5.0,5.0,80,0.00,,,0.00,Wunderground v.1.15,2013-07-04 18:50:00,
2013-07-04 14:55:00,83.6,76.0,30.10,WNW,303,5.0,8.0,78,0.00,,,0.00,Wunderground v.1.15,2013-07-04 18:55:00,
2013-07-04 15:01:00,82.7,75.1,30.10,West,272,6.0,8.0,78,0.00,,,0.00,Wunderground v.1.15,2013-07-04 19:01:00,
2013-07-04 15:06:00,81.8,74.6,30.10,NNW,331,6.0,11.0,79,0.00,,,0.00,Wunderground v.1.15,2013-07-04 19:06:00,
2013-07-04 15:12:00,81.2,74.8,30.10,WNW,295,5.0,7.0,81,0.00,,,0.00,Wunderground v.1.15,2013-07-04 19:12:00,
2013-07-04 15:17:00,81.6,75.2,30.10,WNW,282,5.0,10.0,81,0.00,,,0.00,Wunderground v.1.15,2013-07-04 19:17:00,
2013-07-04 15:22:00,81.5,74.4,30.10,NW,313,5.0,8.0,79,0.00,,,0.00,Wunderground v.1.15,2013-07-04 19:22:00,
2013-07-04 15:28:00,81.3,74.9,30.10,NW,324,5.0,13.0,81,0.00,,,0.00,Wunderground v.1.15,2013-07-04 19:28:00,
2013-07-04 15:34:00,81.9,75.1,30.10,WNW,302,5.0,6.0,80,0.00,,,0.00,Wunderground v.1.15,2013-07-04 19:34:00,
2013-07-04 15:39:00,82.0,74.8,30.10,NNW,342,4.0,6.0,79,0.00,,,0.00,Wunderground v.1.15,2013-07-04 19:39:00,
2013-07-04 15:44:00,82.5,75.7,30.10,NNW,332,3.0,4.0,80,0.00,,,0.00,Wunderground v.1.15,2013-07-04 19:44:00,
2013-07-04 15:50:00,82.7,75.1,30.10,West,277,3.0,3.0,78,0.00,,,0.00,Wunderground v.1.15,2013-07-04 19:50:00,
2013-07-04 15:55:00,82.7,74.4,30.10,WNW,296,3.0,6.0,76,0.00,,,0.00,Wunderground v.1.15,2013-07-04 19:55:00,
2013-07-04 16:01:00,82.1,74.2,30.10,West,279,3.0,3.0,77,0.00,,,0.00,Wunderground v.1.15,2013-07-04 20:01:00,
2013-07-04 16:06:00,82.0,74.5,30.10,WNW,289,3.0,5.0,78,0.00,,,0.00,Wunderground v.1.15,2013-07-04 20:06:00,
2013-07-04 16:11:00,81.8,74.3,30.10,WNW,303,3.0,3.0,78,0.00,,,0.00,Wunderground v.1.15,2013-07-04 20:11:00,
2013-07-04 16:17:00,82.4,75.2,30.10,West,280,2.0,9.0,79,0.00,,,0.00,Wunderground v.1.15,2013-07-04 20:17:00,
2013-07-04 16:22:00,82.6,75.0,30.09,NNW,331,2.0,4.0,78,0.00,,,0.00,Wunderground v.1.15,2013-07-04 20:22:00,
2013-07-04 16:27:00,82.8,74.1,30.09,WNW,297,3.0,8.0,75,0.00,,,0.00,Wunderground v.1.15,2013-07-04 20:27:00,
2013-07-04 16:33:00,82.8,74.8,30.09,NW,311,3.0,4.0,77,0.00,,,0.00,Wunderground v.1.15,2013-07-04 20:33:00,
2013-07-04 16:38:00,82.6,74.7,30.09,West,279,3.0,10.0,77,0.00,,,0.00,Wunderground v.1.15,2013-07-04 20:38:00,
2013-07-04 16:43:00,81.9,73.6,30.09,WNW,282,4.0,5.0,76,0.00,,,0.00,Wunderground v.1.15,2013-07-04 20:43:00,
2013-07-04 16:49:00,81.8,75.0,30.09,West,280,3.0,7.0,80,0.00,,,0.00,Wunderground v.1.15,2013-07-04 20:49:00,
2013-07-04 16:55:00,82.2,74.7,30.09,West,274,2.0,3.0,78,0.00,,,0.00,Wunderground v.1.15,2013-07-04 20:55:00,
2013-07-04 17:00:00,82.3,74.7,30.09,NW,309,2.0,2.0,78,0.00,,,0.00,Wunderground v.1.15,2013-07-04 21:00:00,
2013-07-04 17:05:00,82.6,75.8,30.09,NW,311,1.0,3.0,80,0.00,,,0.00,Wunderground v.1.15,2013-07-04 21:05:00,
2013-07-04 17:11:00,82.9,74.6,30.09,NW,316,1.0,2.0,76,0.00,,,0.00,Wunderground v.1.15,2013-07-04 21:11:00,
2013-07-04 17:16:00,82.8,74.8,30.09,NW,323,2.0,2.0,77,0.00,,,0.00,Wunderground v.1.15,2013-07-04 21:16:00,
2013-07-04 17:22:00,82.8,74.8,30.09,NNW,328,1.0,5.0,77,0.00,,,0.00,Wunderground v.1.15,2013-07-04 21:22:00,
2013-07-04 17:27:00,82.8,74.8,30.09,NNW,327,1.0,5.0,77,0.00,,,0.00,Wunderground v.1.15,2013-07-04 21:27:00,
2013-07-04 17:32:00,82.6,74.7,30.09,NW,314,1.0,3.0,77,0.00,,,0.00,Wunderground v.1.15,2013-07-04 21:32:00,
2013-07-04 17:38:00,83.0,75.8,30.08,NW,317,1.0,3.0,79,0.00,,,0.00,Wunderground v.1.15,2013-07-04 21:38:00,
2013-07-04 17:43:00,83.2,74.4,30.09,WSW,244,2.0,4.0,75,0.00,,,0.00,Wunderground v.1.15,2013-07-04 21:43:00,
2013-07-04 17:48:00,82.9,74.9,30.09,West,276,3.0,4.0,77,0.00,,,0.00,Wunderground v.1.15,2013-07-04 21:48:00,
2013-07-04 17:54:00,83.0,74.3,30.09,West,270,2.0,6.0,75,0.00,,,0.00,Wunderground v.1.15,2013-07-04 21:54:00,
2013-07-04 17:59:00,83.0,75.0,30.08,WNW,297,2.0,6.0,77,0.00,,,0.00,Wunderground v.1.15,2013-07-04 21:59:00,
2013-07-04 18:05:00,82.7,74.4,30.08,West,272,2.0,4.0,76,0.00,,,0.00,Wunderground v.1.15,2013-07-04 22:05:00,
2013-07-04 18:11:00,82.4,74.1,30.08,West,263,2.0,2.0,76,0.00,,,0.00,Wunderground v.1.15,2013-07-04 22:11:00,
2013-07-04 18:17:00,82.3,74.0,30.08,West,263,1.0,2.0,76,0.00,,,0.00,Wunderground v.1.15,2013-07-04 22:17:00,
2013-07-04 18:22:00,82.5,73.8,30.08,NNW,330,1.0,1.0,75,0.00,,,0.00,Wunderground v.1.15,2013-07-04 22:22:00,
2013-07-04 18:28:00,82.8,74.5,30.09,NW,317,1.0,3.0,76,0.00,,,0.00,Wunderground v.1.15,2013-07-04 22:28:00,
2013-07-04 18:33:00,82.7,74.0,30.08,NW,324,1.0,2.0,75,0.00,,,0.00,Wunderground v.1.15,2013-07-04 22:33:00,
2013-07-04 18:39:00,82.8,74.5,30.08,NW,323,1.0,2.0,76,0.00,,,0.00,Wunderground v.1.15,2013-07-04 22:39:00,
2013-07-04 18:44:00,83.0,74.6,30.08,NW,315,1.0,2.0,76,0.00,,,0.00,Wunderground v.1.15,2013-07-04 22:44:00,
2013-07-04 18:49:00,83.2,74.8,30.08,NW,315,1.0,2.0,76,0.00,,,0.00,Wunderground v.1.15,2013-07-04 22:49:00,
2013-07-04 18:55:00,83.2,74.8,30.08,NW,315,1.0,3.0,76,0.00,,,0.00,Wunderground v.1.15,2013-07-04 22:55:00,
2013-07-04 19:00:00,83.3,74.5,30.08,NW,315,1.0,1.0,75,0.00,,,0.00,Wunderground v.1.15,2013-07-04 23:00:00,
2013-07-04 19:05:00,83.0,74.3,30.09,NW,311,0.0,3.0,75,0.00,,,0.00,Wunderground v.1.15,2013-07-04 23:05:00,
2013-07-04 19:11:00,82.6,74.3,30.09,NW,310,1.0,2.0,76,0.00,,,0.00,Wunderground v.1.15,2013-07-04 23:11:00,
2013-07-04 19:17:00,82.5,74.6,30.09,NW,312,1.0,2.0,77,0.00,,,0.00,Wunderground v.1.15,2013-07-04 23:17:00,
2013-07-04 19:22:00,82.4,74.8,30.09,NW,312,0.0,1.0,78,0.00,,,0.00,Wunderground v.1.15,2013-07-04 23:22:00,
2013-07-04 19:27:00,82.3,74.4,30.09,NW,311,1.0,2.0,77,0.00,,,0.00,Wunderground v.1.15,2013-07-04 23:27:00,
2013-07-04 19:33:00,82.3,74.4,30.09,NW,311,1.0,2.0,77,0.00,,,0.00,Wunderground v.1.15,2013-07-04 23:33:00,
2013-07-04 19:38:00,82.5,74.9,30.09,NW,311,0.0,2.0,78,0.00,,,0.00,Wunderground v.1.15,2013-07-04 23:38:00,
2013-07-04 19:44:00,82.4,74.1,30.09,NW,311,0.0,0.0,76,0.00,,,0.00,Wunderground v.1.15,2013-07-04 23:44:00,
2013-07-04 19:50:00,82.0,73.3,30.11,SSW,204,2.0,7.0,75,0.00,,,0.00,Wunderground v.1.15,2013-07-04 23:50:00,
2013-07-04 19:55:00,79.7,72.2,30.10,East,96,4.0,7.0,78,0.00,,,0.00,Wunderground v.1.15,2013-07-04 23:55:00,
2013-07-04 20:01:00,78.4,72.4,30.10,WSW,250,2.0,4.0,82,0.00,,,0.00,Wunderground v.1.15,2013-07-05 00:01:00,
2013-07-04 20:06:00,77.1,71.5,30.10,SSE,150,1.0,4.0,83,0.00,,,0.00,Wunderground v.1.15,2013-07-05 00:06:00,
2013-07-04 20:11:00,76.5,71.7,30.10,SSE,150,1.0,1.0,85,0.00,,,0.00,Wunderground v.1.15,2013-07-05 00:11:00,
2013-07-04 20:17:00,75.9,71.1,30.10,SSE,150,0.0,1.0,85,0.00,,,0.00,Wunderground v.1.15,2013-07-05 00:17:00,
2013-07-04 20:23:00,75.5,71.0,30.10,SSE,150,0.0,0.0,86,0.00,,,0.00,Wunderground v.1.15,2013-07-05 00:23:00,
2013-07-04 20:28:00,75.4,70.9,30.10,SSE,150,0.0,0.0,86,0.00,,,0.00,Wunderground v.1.15,2013-07-05 00:28:00,
2013-07-04 20:33:00,75.2,71.1,30.09,SSE,150,0.0,0.0,87,0.00,,,0.00,Wunderground v.1.15,2013-07-05 00:33:00,
2013-07-04 20:39:00,74.7,70.9,30.10,SSE,150,0.0,0.0,88,0.00,,,0.00,Wunderground v.1.15,2013-07-05 00:39:00,
2013-07-04 20:44:00,74.3,70.5,30.10,SSE,150,0.0,0.0,88,0.00,,,0.00,Wunderground v.1.15,2013-07-05 00:44:00,
2013-07-04 20:49:00,74.0,70.2,30.10,SSE,150,0.0,0.0,88,0.00,,,0.00,Wunderground v.1.15,2013-07-05 00:49:00,
2013-07-04 20:55:00,73.9,70.1,30.10,SSE,150,0.0,0.0,88,0.00,,,0.00,Wunderground v.1.15,2013-07-05 00:55:00,
2013-07-04 21:00:00,73.8,70.0,30.10,SSE,150,0.0,0.0,88,0.00,,,0.00,Wunderground v.1.15,2013-07-05 01:00:00,
2013-07-04 21:05:00,73.5,69.7,30.10,SSE,150,0.0,2.0,88,0.00,,,0.00,Wunderground v.1.15,2013-07-05 01:05:00,
2013-07-04 21:11:00,73.1,69.3,30.11,SSE,150,1.0,2.0,88,0.00,,,0.00,Wunderground v.1.15,2013-07-05 01:11:00,
2013-07-04 21:16:00,72.9,68.8,30.10,SSE,150,1.0,2.0,87,0.00,,,0.00,Wunderground v.1.15,2013-07-05 01:16:00,
2013-07-04 21:22:00,72.8,68.7,30.09,SSE,150,0.0,0.0,87,0.00,,,0.00,Wunderground v.1.15,2013-07-05 01:22:00,
2013-07-04 21:27:00,72.6,68.5,30.09,SSE,150,0.0,0.0,87,0.00,,,0.00,Wunderground v.1.15,2013-07-05 01:27:00,
2013-07-04 21:32:00,72.4,68.3,30.10,SSE,150,0.0,0.0,87,0.00,,,0.00,Wunderground v.1.15,2013-07-05 01:32:00,
2013-07-04 21:37:00,72.3,67.9,30.10,SSE,150,0.0,0.0,86,0.00,,,0.00,Wunderground v.1.15,2013-07-05 01:37:00,
2013-07-04 21:43:00,72.1,67.7,30.10,SSE,150,0.0,0.0,86,0.00,,,0.00,Wunderground v.1.15,2013-07-05 01:43:00,
2013-07-04 21:48:00,72.0,67.6,30.11,SSE,150,0.0,2.0,86,0.00,,,0.00,Wunderground v.1.15,2013-07-05 01:48:00,
2013-07-04 21:53:00,71.8,67.4,30.11,SSE,150,0.0,0.0,86,0.00,,,0.00,Wunderground v.1.15,2013-07-05 01:53:00,
2013-07-04 21:59:00,71.7,67.3,30.11,SSE,150,0.0,0.0,86,0.00,,,0.00,Wunderground v.1.15,2013-07-05 01:59:00,
2013-07-04 22:04:00,71.7,66.9,30.11,SSE,150,0.0,0.0,85,0.00,,,0.00,Wunderground v.1.15,2013-07-05 02:04:00,
2013-07-04 22:10:00,71.6,66.8,30.12,SSE,150,0.0,0.0,85,0.00,,,0.00,Wunderground v.1.15,2013-07-05 02:10:00,
2013-07-04 22:16:00,71.5,66.8,30.12,SSE,150,0.0,1.0,85,0.00,,,0.00,Wunderground v.1.15,2013-07-05 02:16:00,
2013-07-04 22:21:00,71.5,66.8,30.12,SSE,150,0.0,0.0,85,0.00,,,0.00,Wunderground v.1.15,2013-07-05 02:21:00,
2013-07-04 22:27:00,71.4,66.3,30.12,SSE,150,0.0,0.0,84,0.00,,,0.00,Wunderground v.1.15,2013-07-05 02:27:00,
2013-07-04 22:32:00,71.3,66.6,30.12,SSE,150,0.0,0.0,85,0.00,,,0.00,Wunderground v.1.15,2013-07-05 02:32:00,
2013-07-04 22:37:00,71.3,66.2,30.13,SSE,150,0.0,0.0,84,0.00,,,0.00,Wunderground v.1.15,2013-07-05 02:37:00,
2013-07-04 22:42:00,71.2,66.1,30.13,SSE,150,0.0,0.0,84,0.00,,,0.00,Wunderground v.1.15,2013-07-05 02:42:00,
2013-07-04 22:48:00,71.1,66.0,30.13,SSE,150,0.0,0.0,84,0.00,,,0.00,Wunderground v.1.15,2013-07-05 02:48:00,
2013-07-04 22:53:00,71.1,66.0,30.12,SSE,150,0.0,0.0,84,0.00,,,0.00,Wunderground v.1.15,2013-07-05 02:53:00,
2013-07-04 22:59:00,70.9,66.2,30.13,SSE,150,0.0,0.0,85,0.00,,,0.00,Wunderground v.1.15,2013-07-05 02:59:00,
2013-07-04 23:04:00,70.8,65.7,30.13,SSE,150,0.0,0.0,84,0.00,,,0.00,Wunderground v.1.15,2013-07-05 03:04:00,
2013-07-04 23:09:00,70.8,65.7,30.13,SSE,150,0.0,0.0,84,0.00,,,0.00,Wunderground v.1.15,2013-07-05 03:09:00,
2013-07-04 23:15:00,70.7,65.6,30.13,SSE,150,0.0,0.0,84,0.00,,,0.00,Wunderground v.1.15,2013-07-05 03:15:00,
2013-07-04 23:20:00,70.7,65.6,30.13,SSE,150,0.0,0.0,84,0.00,,,0.00,Wunderground v.1.15,2013-07-05 03:20:00,
2013-07-04 23:26:00,70.8,65.7,30.13,SSE,150,0.0,0.0,84,0.00,,,0.00,Wunderground v.1.15,2013-07-05 03:26:00,
2013-07-04 23:31:00,70.7,65.3,30.13,SSE,150,0.0,0.0,83,0.00,,,0.00,Wunderground v.1.15,2013-07-05 03:31:00,
2013-07-04 23:36:00,70.7,65.6,30.13,SSE,150,0.0,0.0,84,0.00,,,0.00,Wunderground v.1.15,2013-07-05 03:36:00,
2013-07-04 23:41:00,70.7,65.3,30.13,SSE,150,0.0,0.0,83,0.00,,,0.00,Wunderground v.1.15,2013-07-05 03:41:00,
2013-07-04 23:47:00,70.7,65.3,30.13,SSE,150,0.0,0.0,83,0.00,,,0.00,Wunderground v.1.15,2013-07-05 03:47:00,
2013-07-04 23:52:00,70.7,65.3,30.13,SSE,150,0.0,0.0,83,0.00,,,0.00,Wunderground v.1.15,2013-07-05 03:52:00,
2013-07-04 23:57:00,70.7,65.3,30.13,SSE,150,0.0,0.0,83,0.00,,,0.00,Wunderground v.1.15,2013-07-05 03:57:00,